createdAt,value
2019-03-25T00:00:45.308Z,1.78
2019-03-25T00:05:51.408Z,1.84
2019-03-25T00:10:57.397Z,1.96
2019-03-25T00:16:03.421Z,1.99
2019-03-25T00:21:09.374Z,2.11
2019-03-25T00:26:15.421Z,1.96
2019-03-25T00:31:21.356Z,1.93
2019-03-25T00:36:27.336Z,1.99
2019-03-25T00:41:33.320Z,2.02
2019-03-25T00:46:39.306Z,1.89
2019-03-25T00:51:45.355Z,1.94
2019-03-25T00:56:51.448Z,2.09
2019-03-25T01:01:57.427Z,1.92
2019-03-25T01:07:03.463Z,1.94
2019-03-25T01:12:09.488Z,1.91
2019-03-25T01:17:15.503Z,1.79
2019-03-25T01:22:21.484Z,1.74
2019-03-25T01:27:27.464Z,1.87
2019-03-25T01:32:33.457Z,1.79
2019-03-25T01:37:39.426Z,2.18
2019-03-25T01:42:45.435Z,1.75
2019-03-25T01:47:51.541Z,2.14
2019-03-25T01:52:57.480Z,2.12
2019-03-25T01:58:03.491Z,1.77
2019-03-25T02:03:09.454Z,2.07
2019-03-25T02:08:15.441Z,1.97
2019-03-25T02:13:21.405Z,1.98
2019-03-25T02:18:27.396Z,2.03
2019-03-25T02:23:33.388Z,2.33
2019-03-25T02:28:39.358Z,1.99
2019-03-25T02:33:45.331Z,2.29
2019-03-25T02:38:51.520Z,2.21
2019-03-25T02:43:57.499Z,2.29
2019-03-25T02:49:03.467Z,2.27
2019-03-25T02:54:10.618Z,2.28
2019-03-25T02:59:16.824Z,2.53
2019-03-25T03:04:22.695Z,3.25
2019-03-25T03:09:28.665Z,3.51
2019-03-25T03:14:34.628Z,3.30
2019-03-25T03:19:40.578Z,3.32
2019-03-25T03:24:46.570Z,3.29
2019-03-25T03:29:52.531Z,3.34
2019-03-25T03:34:58.548Z,3.30
2019-03-25T03:40:04.512Z,3.24
2019-03-25T03:45:10.494Z,3.64
2019-03-25T03:50:16.439Z,3.45
2019-03-25T03:55:22.384Z,3.12
2019-03-25T04:00:28.349Z,3.39
2019-03-25T04:05:34.322Z,3.33
2019-03-25T04:10:40.301Z,3.39
2019-03-25T04:15:46.272Z,3.10
2019-03-25T04:20:52.264Z,3.48
2019-03-25T04:25:58.255Z,3.17
2019-03-25T04:31:04.503Z,3.47
2019-03-25T04:36:10.464Z,3.44
2019-03-25T04:41:16.458Z,3.70
2019-03-25T04:46:22.567Z,3.53
2019-03-25T04:51:28.513Z,3.83
2019-03-25T04:56:39.484Z,4.06
2019-03-25T05:01:39.979Z,4.12
2019-03-25T05:06:46.089Z,5.01
2019-03-25T05:11:52.730Z,4.68
2019-03-25T05:16:58.742Z,4.11
2019-03-25T05:22:04.712Z,4.29
2019-03-25T05:27:10.669Z,6.88
2019-03-25T05:32:16.623Z,5.62
2019-03-25T05:37:22.722Z,7.19
2019-03-25T05:42:28.682Z,7.16
2019-03-25T05:47:34.673Z,7.14
2019-03-25T05:52:40.650Z,5.65
2019-03-25T05:57:46.696Z,5.71
2019-03-25T06:02:52.855Z,6.56
2019-03-25T06:07:58.925Z,6.58
2019-03-25T06:13:04.889Z,5.30
2019-03-25T06:18:10.997Z,5.07
2019-03-25T06:23:16.973Z,5.47
2019-03-25T06:28:23.057Z,5.11
2019-03-25T06:33:29.005Z,4.20
2019-03-25T06:38:34.976Z,3.91
2019-03-25T06:43:40.934Z,3.87
2019-03-25T06:48:46.915Z,3.62
2019-03-25T06:53:52.882Z,3.00
2019-03-25T06:58:58.966Z,2.82
2019-03-25T07:04:04.972Z,2.88
2019-03-25T07:09:11.136Z,2.84
2019-03-25T07:14:17.147Z,3.47
2019-03-25T07:19:23.110Z,3.57
2019-03-25T07:24:29.061Z,3.60
2019-03-25T07:29:35.043Z,3.47
2019-03-25T07:34:41.340Z,3.34
2019-03-25T07:39:46.969Z,3.55
2019-03-25T07:44:52.911Z,3.77
2019-03-25T07:49:58.892Z,3.48
2019-03-25T07:55:04.876Z,3.47
2019-03-25T08:00:13.763Z,3.73
2019-03-25T08:05:16.441Z,3.26
2019-03-25T08:10:22.426Z,3.35
2019-03-25T08:15:28.445Z,2.91
2019-03-25T08:20:34.450Z,3.07
2019-03-25T08:25:40.407Z,3.31
2019-03-25T08:30:46.359Z,3.16
2019-03-25T08:35:52.320Z,3.49
2019-03-25T08:40:58.348Z,3.35
2019-03-25T08:46:04.326Z,3.13
2019-03-25T08:51:10.298Z,3.06
2019-03-25T08:56:16.298Z,3.30
2019-03-25T09:01:22.251Z,2.75
2019-03-25T09:06:28.229Z,2.66
2019-03-25T09:11:34.228Z,2.65
2019-03-25T09:16:40.195Z,2.58
2019-03-25T09:21:46.147Z,2.57
2019-03-25T09:26:52.114Z,2.92
2019-03-25T09:31:58.092Z,3.13
2019-03-25T09:37:04.057Z,4.64
2019-03-25T09:42:10.031Z,2.90
2019-03-25T09:47:16.002Z,3.82
2019-03-25T09:52:21.956Z,3.04
2019-03-25T09:57:27.943Z,1.91
2019-03-25T10:02:33.973Z,2.02
2019-03-25T10:07:39.959Z,1.59
2019-03-25T10:12:45.937Z,1.17
2019-03-25T10:17:51.902Z,1.87
2019-03-25T10:22:57.871Z,1.10
2019-03-25T10:28:03.863Z,1.15
2019-03-25T10:33:09.879Z,1.30
2019-03-25T10:38:19.713Z,1.50
2019-03-25T10:43:21.324Z,1.22
2019-03-25T10:48:27.282Z,0.89
2019-03-25T10:53:33.292Z,1.27
2019-03-25T10:58:39.256Z,1.10
2019-03-25T11:03:45.241Z,0.91
2019-03-25T11:08:51.261Z,1.35
2019-03-25T11:13:57.360Z,1.35
2019-03-25T11:19:03.336Z,0.98
2019-03-25T11:24:09.338Z,0.73
2019-03-25T11:29:15.334Z,0.50
2019-03-25T11:34:21.414Z,0.80
2019-03-25T11:39:27.453Z,0.75
2019-03-25T11:44:33.416Z,0.59
2019-03-25T11:49:39.395Z,0.77
2019-03-25T11:54:45.362Z,1.23
2019-03-25T11:59:51.339Z,0.79
2019-03-25T12:04:57.491Z,0.96
2019-03-25T12:10:03.505Z,1.24
2019-03-25T12:15:09.462Z,0.98
2019-03-25T12:20:15.468Z,0.71
2019-03-25T12:25:21.470Z,0.84
2019-03-25T12:30:27.461Z,0.89
2019-03-25T12:35:33.571Z,1.01
2019-03-25T12:40:39.568Z,0.90
2019-03-25T12:45:45.569Z,1.25
2019-03-25T12:50:51.654Z,1.43
2019-03-25T12:55:57.610Z,1.51
2019-03-25T13:01:03.580Z,1.24
2019-03-25T13:06:09.556Z,1.37
2019-03-25T13:11:15.562Z,1.97
2019-03-25T13:16:21.683Z,0.85
2019-03-25T13:21:27.823Z,1.28
2019-03-25T13:26:33.947Z,1.16
2019-03-25T13:31:39.950Z,2.13
2019-03-25T13:36:46.084Z,1.22
2019-03-25T13:41:52.142Z,0.93
2019-03-25T13:46:58.139Z,0.89
2019-03-25T13:52:04.142Z,1.60
2019-03-25T13:57:10.094Z,0.93
2019-03-25T14:02:16.141Z,0.89
2019-03-25T14:07:22.140Z,0.84
2019-03-25T14:12:28.154Z,1.52
2019-03-25T14:17:34.165Z,1.25
2019-03-25T14:22:40.154Z,1.49
2019-03-25T14:27:46.106Z,1.42
2019-03-25T14:32:52.087Z,1.46
2019-03-25T14:37:58.122Z,1.09
2019-03-25T14:43:04.280Z,1.56
2019-03-25T14:48:10.379Z,1.35
2019-03-25T14:53:16.325Z,0.73
2019-03-25T14:58:22.339Z,1.49
2019-03-25T15:03:28.314Z,1.99
2019-03-25T15:08:34.312Z,1.49
2019-03-25T15:13:40.310Z,1.41
2019-03-25T15:18:46.308Z,1.83
2019-03-25T15:23:52.434Z,1.79
2019-03-25T15:28:58.488Z,3.05
2019-03-25T15:34:04.533Z,2.23
2019-03-25T15:39:10.607Z,2.18
2019-03-25T15:44:16.665Z,2.15
2019-03-25T15:49:22.774Z,1.91
2019-03-25T15:54:28.763Z,2.16
2019-03-25T15:59:34.785Z,2.25
2019-03-25T16:04:40.912Z,2.45
2019-03-25T16:09:46.932Z,1.87
2019-03-25T16:14:52.939Z,1.85
2019-03-25T16:19:58.955Z,1.96
2019-03-25T16:25:05.088Z,1.26
2019-03-25T16:30:11.075Z,2.03
2019-03-25T16:35:17.052Z,2.86
2019-03-25T16:40:23.085Z,2.69
2019-03-25T16:45:29.147Z,2.87
2019-03-25T16:50:35.164Z,2.96
2019-03-25T16:55:41.237Z,3.01
2019-03-25T17:00:47.246Z,6.25
2019-03-25T17:05:53.253Z,2.82
2019-03-25T17:10:59.252Z,3.04
2019-03-25T17:16:05.532Z,1.95
2019-03-25T17:21:11.586Z,2.71
2019-03-25T17:26:17.809Z,2.63
2019-03-25T17:31:23.810Z,3.79
2019-03-25T17:36:29.859Z,4.47
2019-03-25T17:41:35.852Z,4.09
2019-03-25T17:46:41.889Z,4.37
2019-03-25T17:51:47.995Z,4.57
2019-03-25T17:56:54.079Z,4.56
2019-03-25T18:02:00.122Z,4.76
2019-03-25T18:07:06.151Z,3.71
2019-03-25T18:12:12.300Z,3.13
2019-03-25T18:17:18.296Z,2.17
2019-03-25T18:22:24.507Z,2.03
2019-03-25T18:27:30.532Z,1.47
2019-03-25T18:32:36.523Z,1.80
2019-03-25T18:37:42.532Z,1.49
2019-03-25T18:42:48.551Z,1.37
2019-03-25T18:47:54.590Z,1.38
2019-03-25T18:53:00.687Z,1.33
2019-03-25T18:58:06.669Z,1.37
2019-03-25T19:03:12.688Z,1.41
2019-03-25T19:08:18.706Z,1.36
2019-03-25T19:13:24.706Z,0.93
2019-03-25T19:18:30.716Z,1.31
2019-03-25T19:23:36.773Z,1.21
2019-03-25T19:28:42.742Z,1.46
2019-03-25T19:33:48.776Z,1.54
2019-03-25T19:38:54.838Z,1.54
2019-03-25T19:44:00.831Z,1.75
2019-03-25T19:49:06.923Z,1.83
2019-03-25T19:54:12.901Z,1.41
2019-03-25T19:59:18.998Z,2.30
2019-03-25T20:04:25.061Z,1.61
2019-03-25T20:09:31.061Z,1.93
2019-03-25T20:14:37.070Z,1.79
2019-03-25T20:19:43.098Z,2.24
2019-03-25T20:24:49.152Z,1.88
2019-03-25T20:29:55.246Z,2.09
2019-03-25T20:35:01.308Z,2.07
2019-03-25T20:40:07.354Z,2.07
2019-03-25T20:45:13.341Z,2.02
2019-03-25T20:50:19.539Z,2.21
2019-03-25T20:55:25.548Z,3.57
2019-03-25T21:00:31.543Z,2.65
2019-03-25T21:05:37.686Z,2.76
2019-03-25T21:10:43.662Z,2.26
2019-03-25T21:15:49.644Z,2.69
2019-03-25T21:20:55.766Z,2.80
2019-03-25T21:26:01.849Z,3.74
2019-03-25T21:31:07.854Z,3.14
2019-03-25T21:36:13.975Z,2.16
2019-03-25T21:41:20.044Z,1.82
2019-03-25T21:46:26.064Z,2.15
2019-03-25T21:51:32.026Z,1.99
2019-03-25T21:56:38.076Z,2.07
2019-03-25T22:01:44.094Z,2.04
2019-03-25T22:06:50.097Z,2.34
2019-03-25T22:11:56.111Z,2.09
2019-03-25T22:17:02.110Z,2.16
2019-03-25T22:22:08.106Z,2.32
2019-03-25T22:27:14.192Z,2.39
2019-03-25T22:32:20.290Z,2.13
2019-03-25T22:37:26.353Z,2.23
2019-03-25T22:42:32.327Z,2.50
2019-03-25T22:47:38.305Z,2.75
2019-03-25T22:52:44.318Z,2.35
2019-03-25T22:57:50.344Z,2.37
2019-03-25T23:02:56.312Z,2.06
2019-03-25T23:08:02.299Z,2.41
2019-03-25T23:13:08.375Z,2.61
2019-03-25T23:18:14.468Z,2.71
2019-03-25T23:23:20.451Z,2.82
2019-03-25T23:28:26.526Z,2.54
2019-03-25T23:33:32.527Z,2.69
2019-03-25T23:38:38.574Z,3.26
2019-03-25T23:43:44.589Z,3.27
2019-03-25T23:48:50.580Z,3.46
2019-03-25T23:53:56.632Z,3.51
2019-03-25T23:59:02.609Z,3.61
